sensor_id;sensor_type;location;lat;lon;timestamp;P1;durP1;ratioP1;P2;durP2;ratioP2
10303;SDS011;5197;48.152;8.590;2024-03-02T00:01:59;16.67;;;12.40;;
10303;SDS011;5197;48.152;8.590;2024-03-02T00:04:25;15.80;;;12.10;;
10303;SDS011;5197;48.152;8.590;2024-03-02T00:06:52;15.57;;;11.93;;
10303;SDS011;5197;48.152;8.590;2024-03-02T00:09:21;18.40;;;12.63;;
10303;SDS011;5197;48.152;8.590;2024-03-02T00:11:48;15.73;;;12.00;;
10303;SDS011;5197;48.152;8.590;2024-03-02T00:14:17;18.73;;;12.67;;
10303;SDS011;5197;48.152;8.590;2024-03-02T00:16:44;17.60;;;12.37;;
10303;SDS011;5197;48.152;8.590;2024-03-02T00:19:10;18.97;;;12.37;;
10303;SDS011;5197;48.152;8.590;2024-03-02T00:21:37;16.27;;;12.53;;
10303;SDS011;5197;48.152;8.590;2024-03-02T00:24:07;16.27;;;11.73;;
10303;SDS011;5197;48.152;8.590;2024-03-02T00:26:54;15.13;;;11.93;;
10303;SDS011;5197;48.152;8.590;2024-03-02T00:29:21;14.83;;;12.00;;
10303;SDS011;5197;48.152;8.590;2024-03-02T00:31:48;17.07;;;12.50;;
10303;SDS011;5197;48.152;8.590;2024-03-02T00:34:15;16.37;;;12.50;;
10303;SDS011;5197;48.152;8.590;2024-03-02T00:36:43;18.50;;;12.40;;
10303;SDS011;5197;48.152;8.590;2024-03-02T00:39:12;19.07;;;13.30;;
10303;SDS011;5197;48.152;8.590;2024-03-02T00:41:41;18.50;;;13.00;;
10303;SDS011;5197;48.152;8.590;2024-03-02T00:44:09;23.73;;;14.13;;
10303;SDS011;5197;48.152;8.590;2024-03-02T00:46:39;18.87;;;14.07;;
10303;SDS011;5197;48.152;8.590;2024-03-02T00:51:48;19.00;;;12.77;;
10303;SDS011;5197;48.152;8.590;2024-03-02T00:54:20;17.43;;;12.93;;
10303;SDS011;5197;48.152;8.590;2024-03-02T00:56:53;17.33;;;13.23;;
10303;SDS011;5197;48.152;8.590;2024-03-02T00:59:22;22.03;;;13.33;;
10303;SDS011;5197;48.152;8.590;2024-03-02T01:01:50;18.23;;;13.27;;
10303;SDS011;5197;48.152;8.590;2024-03-02T01:04:17;18.53;;;13.53;;
10303;SDS011;5197;48.152;8.590;2024-03-02T01:06:44;17.20;;;12.57;;
10303;SDS011;5197;48.152;8.590;2024-03-02T01:09:12;18.10;;;12.83;;
10303;SDS011;5197;48.152;8.590;2024-03-02T01:11:39;20.40;;;13.63;;
10303;SDS011;5197;48.152;8.590;2024-03-02T01:14:06;20.40;;;13.97;;
10303;SDS011;5197;48.152;8.590;2024-03-02T01:16:33;20.80;;;15.10;;
10303;SDS011;5197;48.152;8.590;2024-03-02T01:19:00;21.00;;;14.40;;
10303;SDS011;5197;48.152;8.590;2024-03-02T01:21:27;19.53;;;14.27;;
10303;SDS011;5197;48.152;8.590;2024-03-02T01:23:54;19.40;;;13.83;;
10303;SDS011;5197;48.152;8.590;2024-03-02T01:26:21;24.43;;;15.07;;
10303;SDS011;5197;48.152;8.590;2024-03-02T01:28:47;23.07;;;15.23;;
10303;SDS011;5197;48.152;8.590;2024-03-02T01:31:15;21.00;;;15.03;;
10303;SDS011;5197;48.152;8.590;2024-03-02T01:33:42;22.53;;;15.07;;
10303;SDS011;5197;48.152;8.590;2024-03-02T01:36:09;25.00;;;15.77;;
10303;SDS011;5197;48.152;8.590;2024-03-02T01:38:35;23.37;;;15.10;;
10303;SDS011;5197;48.152;8.590;2024-03-02T01:41:02;23.30;;;15.47;;
10303;SDS011;5197;48.152;8.590;2024-03-02T01:43:30;22.60;;;15.07;;
10303;SDS011;5197;48.152;8.590;2024-03-02T01:45:56;23.83;;;15.70;;
10303;SDS011;5197;48.152;8.590;2024-03-02T01:48:24;22.83;;;14.93;;
10303;SDS011;5197;48.152;8.590;2024-03-02T01:50:51;22.83;;;14.70;;
10303;SDS011;5197;48.152;8.590;2024-03-02T01:53:18;22.73;;;15.23;;
10303;SDS011;5197;48.152;8.590;2024-03-02T01:55:45;21.53;;;15.23;;
10303;SDS011;5197;48.152;8.590;2024-03-02T01:58:12;25.63;;;15.63;;
10303;SDS011;5197;48.152;8.590;2024-03-02T02:00:40;21.17;;;14.03;;
10303;SDS011;5197;48.152;8.590;2024-03-02T02:03:07;24.10;;;16.03;;
10303;SDS011;5197;48.152;8.590;2024-03-02T02:05:34;23.33;;;15.73;;
10303;SDS011;5197;48.152;8.590;2024-03-02T02:08:01;22.27;;;15.83;;
10303;SDS011;5197;48.152;8.590;2024-03-02T02:10:28;21.57;;;15.00;;
10303;SDS011;5197;48.152;8.590;2024-03-02T02:12:55;23.63;;;14.73;;
10303;SDS011;5197;48.152;8.590;2024-03-02T02:15:26;23.00;;;14.40;;
10303;SDS011;5197;48.152;8.590;2024-03-02T02:17:55;23.57;;;14.70;;
10303;SDS011;5197;48.152;8.590;2024-03-02T02:20:23;21.30;;;14.23;;
10303;SDS011;5197;48.152;8.590;2024-03-02T02:22:57;23.03;;;14.20;;
10303;SDS011;5197;48.152;8.590;2024-03-02T02:25:56;20.63;;;13.53;;
10303;SDS011;5197;48.152;8.590;2024-03-02T02:28:25;20.63;;;13.40;;
10303;SDS011;5197;48.152;8.590;2024-03-02T02:30:52;21.50;;;14.17;;
10303;SDS011;5197;48.152;8.590;2024-03-02T02:33:22;19.07;;;13.13;;
10303;SDS011;5197;48.152;8.590;2024-03-02T02:35:49;20.73;;;14.07;;
10303;SDS011;5197;48.152;8.590;2024-03-02T02:38:16;25.67;;;14.17;;
10303;SDS011;5197;48.152;8.590;2024-03-02T02:40:43;22.63;;;14.60;;
10303;SDS011;5197;48.152;8.590;2024-03-02T02:43:10;25.87;;;15.63;;
10303;SDS011;5197;48.152;8.590;2024-03-02T02:45:37;26.53;;;15.23;;
10303;SDS011;5197;48.152;8.590;2024-03-02T02:48:04;21.63;;;14.60;;
10303;SDS011;5197;48.152;8.590;2024-03-02T02:50:32;25.40;;;14.60;;
10303;SDS011;5197;48.152;8.590;2024-03-02T02:52:59;23.40;;;14.90;;
10303;SDS011;5197;48.152;8.590;2024-03-02T02:55:26;25.53;;;15.43;;
10303;SDS011;5197;48.152;8.590;2024-03-02T02:57:52;25.87;;;15.43;;
10303;SDS011;5197;48.152;8.590;2024-03-02T03:00:19;26.67;;;14.93;;
10303;SDS011;5197;48.152;8.590;2024-03-02T03:02:49;24.57;;;15.80;;
10303;SDS011;5197;48.152;8.590;2024-03-02T03:05:17;22.10;;;14.90;;
10303;SDS011;5197;48.152;8.590;2024-03-02T03:07:44;24.33;;;14.13;;
10303;SDS011;5197;48.152;8.590;2024-03-02T03:10:12;23.27;;;14.23;;
10303;SDS011;5197;48.152;8.590;2024-03-02T03:12:40;24.17;;;14.50;;
10303;SDS011;5197;48.152;8.590;2024-03-02T03:15:09;22.93;;;14.70;;
10303;SDS011;5197;48.152;8.590;2024-03-02T03:17:37;25.93;;;15.37;;
10303;SDS011;5197;48.152;8.590;2024-03-02T03:20:05;23.60;;;14.87;;
10303;SDS011;5197;48.152;8.590;2024-03-02T03:22:36;22.60;;;15.27;;
10303;SDS011;5197;48.152;8.590;2024-03-02T03:25:04;21.47;;;13.60;;
10303;SDS011;5197;48.152;8.590;2024-03-02T03:27:31;23.70;;;14.30;;
10303;SDS011;5197;48.152;8.590;2024-03-02T03:29:58;23.60;;;13.57;;
10303;SDS011;5197;48.152;8.590;2024-03-02T03:32:25;25.93;;;14.50;;
10303;SDS011;5197;48.152;8.590;2024-03-02T03:34:52;24.70;;;15.20;;
10303;SDS011;5197;48.152;8.590;2024-03-02T03:37:19;21.57;;;13.77;;
10303;SDS011;5197;48.152;8.590;2024-03-02T03:39:46;22.73;;;14.57;;
10303;SDS011;5197;48.152;8.590;2024-03-02T03:42:13;21.73;;;14.10;;
10303;SDS011;5197;48.152;8.590;2024-03-02T03:44:39;21.40;;;13.60;;
10303;SDS011;5197;48.152;8.590;2024-03-02T03:47:08;20.77;;;13.80;;
10303;SDS011;5197;48.152;8.590;2024-03-02T03:49:34;22.70;;;14.40;;
10303;SDS011;5197;48.152;8.590;2024-03-02T03:52:01;24.23;;;14.97;;
10303;SDS011;5197;48.152;8.590;2024-03-02T03:54:28;24.50;;;14.90;;
10303;SDS011;5197;48.152;8.590;2024-03-02T03:56:55;24.40;;;15.70;;
10303;SDS011;5197;48.152;8.590;2024-03-02T03:59:22;23.70;;;14.33;;
10303;SDS011;5197;48.152;8.590;2024-03-02T04:01:50;22.80;;;15.57;;
10303;SDS011;5197;48.152;8.590;2024-03-02T04:04:17;23.17;;;14.63;;
10303;SDS011;5197;48.152;8.590;2024-03-02T04:06:44;23.40;;;15.33;;
10303;SDS011;5197;48.152;8.590;2024-03-02T04:09:11;24.50;;;14.40;;
10303;SDS011;5197;48.152;8.590;2024-03-02T04:11:38;26.87;;;16.57;;
10303;SDS011;5197;48.152;8.590;2024-03-02T04:14:04;24.53;;;15.53;;
10303;SDS011;5197;48.152;8.590;2024-03-02T04:16:32;25.23;;;15.37;;
10303;SDS011;5197;48.152;8.590;2024-03-02T04:18:59;24.10;;;15.93;;
10303;SDS011;5197;48.152;8.590;2024-03-02T04:21:26;22.37;;;14.77;;
10303;SDS011;5197;48.152;8.590;2024-03-02T04:23:53;24.47;;;14.17;;
10303;SDS011;5197;48.152;8.590;2024-03-02T04:26:24;24.97;;;15.50;;
10303;SDS011;5197;48.152;8.590;2024-03-02T04:28:51;24.90;;;14.77;;
10303;SDS011;5197;48.152;8.590;2024-03-02T04:31:19;23.67;;;15.90;;
10303;SDS011;5197;48.152;8.590;2024-03-02T04:33:46;25.37;;;15.43;;
10303;SDS011;5197;48.152;8.590;2024-03-02T04:36:13;22.67;;;14.27;;
10303;SDS011;5197;48.152;8.590;2024-03-02T04:38:40;25.33;;;15.00;;
10303;SDS011;5197;48.152;8.590;2024-03-02T04:41:07;25.27;;;14.87;;
10303;SDS011;5197;48.152;8.590;2024-03-02T04:43:34;22.03;;;14.57;;
10303;SDS011;5197;48.152;8.590;2024-03-02T04:46:01;22.70;;;14.97;;
10303;SDS011;5197;48.152;8.590;2024-03-02T04:48:28;25.47;;;15.30;;
10303;SDS011;5197;48.152;8.590;2024-03-02T04:50:55;25.30;;;15.43;;
10303;SDS011;5197;48.152;8.590;2024-03-02T04:53:21;24.23;;;15.03;;
10303;SDS011;5197;48.152;8.590;2024-03-02T04:55:48;23.63;;;15.33;;
10303;SDS011;5197;48.152;8.590;2024-03-02T04:58:21;25.60;;;15.17;;
10303;SDS011;5197;48.152;8.590;2024-03-02T05:00:48;24.50;;;14.87;;
10303;SDS011;5197;48.152;8.590;2024-03-02T05:03:15;28.57;;;16.00;;
10303;SDS011;5197;48.152;8.590;2024-03-02T05:05:42;25.50;;;14.87;;
10303;SDS011;5197;48.152;8.590;2024-03-02T05:08:09;25.27;;;15.77;;
10303;SDS011;5197;48.152;8.590;2024-03-02T05:10:38;23.60;;;15.33;;
10303;SDS011;5197;48.152;8.590;2024-03-02T05:13:16;23.03;;;14.50;;
10303;SDS011;5197;48.152;8.590;2024-03-02T05:15:53;23.43;;;14.83;;
10303;SDS011;5197;48.152;8.590;2024-03-02T05:18:19;21.43;;;14.40;;
10303;SDS011;5197;48.152;8.590;2024-03-02T05:20:46;25.70;;;16.70;;
10303;SDS011;5197;48.152;8.590;2024-03-02T05:23:14;25.73;;;15.23;;
10303;SDS011;5197;48.152;8.590;2024-03-02T05:25:41;24.07;;;15.37;;
10303;SDS011;5197;48.152;8.590;2024-03-02T05:28:07;23.83;;;15.33;;
10303;SDS011;5197;48.152;8.590;2024-03-02T05:30:34;23.27;;;15.40;;
10303;SDS011;5197;48.152;8.590;2024-03-02T05:33:02;26.43;;;15.57;;
10303;SDS011;5197;48.152;8.590;2024-03-02T05:35:29;24.27;;;15.43;;
10303;SDS011;5197;48.152;8.590;2024-03-02T05:37:56;24.13;;;14.77;;
10303;SDS011;5197;48.152;8.590;2024-03-02T05:40:22;27.93;;;16.83;;
10303;SDS011;5197;48.152;8.590;2024-03-02T05:42:49;26.70;;;15.97;;
10303;SDS011;5197;48.152;8.590;2024-03-02T05:45:16;26.10;;;15.77;;
10303;SDS011;5197;48.152;8.590;2024-03-02T05:47:43;25.43;;;15.93;;
10303;SDS011;5197;48.152;8.590;2024-03-02T05:50:10;25.60;;;15.97;;
10303;SDS011;5197;48.152;8.590;2024-03-02T05:52:37;22.57;;;14.97;;
10303;SDS011;5197;48.152;8.590;2024-03-02T05:55:05;24.67;;;16.07;;
10303;SDS011;5197;48.152;8.590;2024-03-02T05:57:32;27.33;;;16.60;;
10303;SDS011;5197;48.152;8.590;2024-03-02T06:00:29;25.83;;;16.17;;
10303;SDS011;5197;48.152;8.590;2024-03-02T06:02:57;24.27;;;16.47;;
10303;SDS011;5197;48.152;8.590;2024-03-02T06:05:24;24.43;;;16.43;;
10303;SDS011;5197;48.152;8.590;2024-03-02T06:07:51;27.70;;;16.50;;
10303;SDS011;5197;48.152;8.590;2024-03-02T06:10:20;31.00;;;17.83;;
10303;SDS011;5197;48.152;8.590;2024-03-02T06:12:47;29.93;;;16.90;;
10303;SDS011;5197;48.152;8.590;2024-03-02T06:15:14;30.67;;;17.23;;
10303;SDS011;5197;48.152;8.590;2024-03-02T06:17:41;27.57;;;16.53;;
10303;SDS011;5197;48.152;8.590;2024-03-02T06:20:08;29.20;;;17.33;;
10303;SDS011;5197;48.152;8.590;2024-03-02T06:22:36;26.50;;;16.20;;
10303;SDS011;5197;48.152;8.590;2024-03-02T06:25:03;28.53;;;16.93;;
10303;SDS011;5197;48.152;8.590;2024-03-02T06:27:30;27.40;;;16.10;;
10303;SDS011;5197;48.152;8.590;2024-03-02T06:29:57;27.77;;;16.60;;
10303;SDS011;5197;48.152;8.590;2024-03-02T06:32:24;25.77;;;17.07;;
10303;SDS011;5197;48.152;8.590;2024-03-02T06:34:51;28.47;;;16.57;;
10303;SDS011;5197;48.152;8.590;2024-03-02T06:37:18;26.27;;;15.90;;
10303;SDS011;5197;48.152;8.590;2024-03-02T06:40:00;25.33;;;16.07;;
10303;SDS011;5197;48.152;8.590;2024-03-02T06:42:27;27.27;;;15.87;;
10303;SDS011;5197;48.152;8.590;2024-03-02T06:45:00;26.83;;;16.67;;
10303;SDS011;5197;48.152;8.590;2024-03-02T06:47:27;28.20;;;16.10;;
10303;SDS011;5197;48.152;8.590;2024-03-02T06:49:53;24.53;;;16.07;;
10303;SDS011;5197;48.152;8.590;2024-03-02T06:52:20;23.53;;;15.53;;
10303;SDS011;5197;48.152;8.590;2024-03-02T06:54:51;21.47;;;14.50;;
10303;SDS011;5197;48.152;8.590;2024-03-02T06:57:19;26.27;;;16.13;;
10303;SDS011;5197;48.152;8.590;2024-03-02T06:59:47;24.43;;;16.23;;
10303;SDS011;5197;48.152;8.590;2024-03-02T07:02:16;22.00;;;14.90;;
10303;SDS011;5197;48.152;8.590;2024-03-02T07:04:43;22.00;;;15.53;;
10303;SDS011;5197;48.152;8.590;2024-03-02T07:07:11;17.50;;;13.90;;
10303;SDS011;5197;48.152;8.590;2024-03-02T07:09:38;14.80;;;12.53;;
10303;SDS011;5197;48.152;8.590;2024-03-02T07:12:06;13.53;;;11.07;;
10303;SDS011;5197;48.152;8.590;2024-03-02T07:14:33;11.87;;;10.27;;
10303;SDS011;5197;48.152;8.590;2024-03-02T07:19:52;9.67;;;8.67;;
10303;SDS011;5197;48.152;8.590;2024-03-02T07:22:19;9.27;;;8.23;;
10303;SDS011;5197;48.152;8.590;2024-03-02T07:24:46;9.53;;;8.53;;
10303;SDS011;5197;48.152;8.590;2024-03-02T07:27:13;9.93;;;8.70;;
10303;SDS011;5197;48.152;8.590;2024-03-02T07:29:41;9.67;;;8.20;;
10303;SDS011;5197;48.152;8.590;2024-03-02T07:32:08;9.00;;;8.10;;
10303;SDS011;5197;48.152;8.590;2024-03-02T07:34:36;8.17;;;7.37;;
10303;SDS011;5197;48.152;8.590;2024-03-02T07:37:05;8.00;;;7.20;;
10303;SDS011;5197;48.152;8.590;2024-03-02T07:39:35;8.40;;;7.53;;
10303;SDS011;5197;48.152;8.590;2024-03-02T07:42:02;8.63;;;7.73;;
10303;SDS011;5197;48.152;8.590;2024-03-02T07:44:30;7.33;;;6.73;;
10303;SDS011;5197;48.152;8.590;2024-03-02T07:46:57;8.03;;;7.33;;
10303;SDS011;5197;48.152;8.590;2024-03-02T07:49:24;8.07;;;7.37;;
10303;SDS011;5197;48.152;8.590;2024-03-02T07:51:51;7.30;;;6.70;;
10303;SDS011;5197;48.152;8.590;2024-03-02T07:54:17;7.30;;;6.70;;
10303;SDS011;5197;48.152;8.590;2024-03-02T07:56:44;6.67;;;6.10;;
10303;SDS011;5197;48.152;8.590;2024-03-02T07:59:11;6.70;;;6.10;;
10303;SDS011;5197;48.152;8.590;2024-03-02T08:01:38;7.70;;;6.90;;
10303;SDS011;5197;48.152;8.590;2024-03-02T08:04:06;7.47;;;6.13;;
10303;SDS011;5197;48.152;8.590;2024-03-02T08:06:33;6.57;;;5.87;;
10303;SDS011;5197;48.152;8.590;2024-03-02T08:09:00;6.43;;;5.93;;
10303;SDS011;5197;48.152;8.590;2024-03-02T08:11:27;6.00;;;5.60;;
10303;SDS011;5197;48.152;8.590;2024-03-02T08:13:55;6.70;;;6.10;;
10303;SDS011;5197;48.152;8.590;2024-03-02T08:16:22;5.90;;;5.43;;
10303;SDS011;5197;48.152;8.590;2024-03-02T08:18:50;5.87;;;5.37;;
10303;SDS011;5197;48.152;8.590;2024-03-02T08:21:17;5.93;;;5.43;;
10303;SDS011;5197;48.152;8.590;2024-03-02T08:23:44;6.50;;;4.87;;
10303;SDS011;5197;48.152;8.590;2024-03-02T08:26:12;5.80;;;5.33;;
10303;SDS011;5197;48.152;8.590;2024-03-02T08:28:39;9.38;;;6.22;;
10303;SDS011;5197;48.152;8.590;2024-03-02T08:31:09;5.93;;;4.90;;
10303;SDS011;5197;48.152;8.590;2024-03-02T08:33:36;6.55;;;6.05;;
10303;SDS011;5197;48.152;8.590;2024-03-02T08:36:04;5.60;;;5.15;;
10303;SDS011;5197;48.152;8.590;2024-03-02T08:38:32;5.47;;;4.95;;
10303;SDS011;5197;48.152;8.590;2024-03-02T08:40:59;5.70;;;5.28;;
10303;SDS011;5197;48.152;8.590;2024-03-02T08:43:26;5.57;;;5.07;;
10303;SDS011;5197;48.152;8.590;2024-03-02T08:45:53;5.55;;;4.95;;
10303;SDS011;5197;48.152;8.590;2024-03-02T08:48:20;5.65;;;5.15;;
10303;SDS011;5197;48.152;8.590;2024-03-02T08:50:47;5.38;;;4.90;;
10303;SDS011;5197;48.152;8.590;2024-03-02T08:53:15;5.03;;;4.53;;
10303;SDS011;5197;48.152;8.590;2024-03-02T08:55:48;5.07;;;4.68;;
10303;SDS011;5197;48.152;8.590;2024-03-02T08:58:15;5.10;;;4.70;;
10303;SDS011;5197;48.152;8.590;2024-03-02T09:00:42;4.90;;;4.50;;
10303;SDS011;5197;48.152;8.590;2024-03-02T09:03:09;5.13;;;4.70;;
10303;SDS011;5197;48.152;8.590;2024-03-02T09:05:36;5.40;;;4.70;;
10303;SDS011;5197;48.152;8.590;2024-03-02T09:08:03;5.00;;;4.60;;
10303;SDS011;5197;48.152;8.590;2024-03-02T09:10:30;4.60;;;4.20;;
10303;SDS011;5197;48.152;8.590;2024-03-02T09:12:57;4.97;;;4.57;;
10303;SDS011;5197;48.152;8.590;2024-03-02T09:15:25;5.00;;;4.50;;
10303;SDS011;5197;48.152;8.590;2024-03-02T09:17:52;4.40;;;4.10;;
10303;SDS011;5197;48.152;8.590;2024-03-02T09:20:19;4.53;;;3.80;;
10303;SDS011;5197;48.152;8.590;2024-03-02T09:22:45;4.40;;;4.07;;
10303;SDS011;5197;48.152;8.590;2024-03-02T09:25:14;4.37;;;4.00;;
10303;SDS011;5197;48.152;8.590;2024-03-02T09:27:42;5.83;;;4.20;;
10303;SDS011;5197;48.152;8.590;2024-03-02T09:30:11;3.90;;;3.60;;
10303;SDS011;5197;48.152;8.590;2024-03-02T09:32:40;4.37;;;3.93;;
10303;SDS011;5197;48.152;8.590;2024-03-02T09:35:07;5.67;;;3.90;;
10303;SDS011;5197;48.152;8.590;2024-03-02T09:37:35;3.97;;;3.67;;
10303;SDS011;5197;48.152;8.590;2024-03-02T09:42:32;3.50;;;3.30;;
10303;SDS011;5197;48.152;8.590;2024-03-02T09:44:59;3.40;;;3.20;;
10303;SDS011;5197;48.152;8.590;2024-03-02T09:47:28;4.63;;;3.60;;
10303;SDS011;5197;48.152;8.590;2024-03-02T09:49:56;3.63;;;3.33;;
10303;SDS011;5197;48.152;8.590;2024-03-02T09:52:23;3.63;;;3.33;;
10303;SDS011;5197;48.152;8.590;2024-03-02T09:54:50;3.87;;;3.00;;
10303;SDS011;5197;48.152;8.590;2024-03-02T09:57:17;3.17;;;2.97;;
10303;SDS011;5197;48.152;8.590;2024-03-02T09:59:44;3.50;;;3.20;;
10303;SDS011;5197;48.152;8.590;2024-03-02T10:02:11;3.40;;;3.00;;
10303;SDS011;5197;48.152;8.590;2024-03-02T10:04:38;4.37;;;3.10;;
10303;SDS011;5197;48.152;8.590;2024-03-02T10:09:35;3.23;;;2.90;;
10303;SDS011;5197;48.152;8.590;2024-03-02T10:12:05;2.90;;;2.70;;
10303;SDS011;5197;48.152;8.590;2024-03-02T10:14:33;3.40;;;3.10;;
10303;SDS011;5197;48.152;8.590;2024-03-02T10:17:05;3.20;;;2.73;;
10303;SDS011;5197;48.152;8.590;2024-03-02T10:19:33;3.53;;;3.23;;
10303;SDS011;5197;48.152;8.590;2024-03-02T10:22:02;3.67;;;3.37;;
10303;SDS011;5197;48.152;8.590;2024-03-02T10:24:40;4.00;;;3.60;;
10303;SDS011;5197;48.152;8.590;2024-03-02T10:27:08;3.83;;;3.53;;
10303;SDS011;5197;48.152;8.590;2024-03-02T10:29:39;6.73;;;3.13;;
10303;SDS011;5197;48.152;8.590;2024-03-02T10:32:10;3.70;;;3.40;;
10303;SDS011;5197;48.152;8.590;2024-03-02T10:34:41;3.50;;;3.20;;
10303;SDS011;5197;48.152;8.590;2024-03-02T10:37:10;3.77;;;3.17;;
10303;SDS011;5197;48.152;8.590;2024-03-02T10:39:38;3.30;;;3.00;;
10303;SDS011;5197;48.152;8.590;2024-03-02T10:42:07;3.73;;;3.13;;
10303;SDS011;5197;48.152;8.590;2024-03-02T10:44:36;3.87;;;3.10;;
10303;SDS011;5197;48.152;8.590;2024-03-02T10:47:04;3.50;;;3.20;;
10303;SDS011;5197;48.152;8.590;2024-03-02T10:49:32;3.40;;;3.10;;
10303;SDS011;5197;48.152;8.590;2024-03-02T10:52:00;2.93;;;2.40;;
10303;SDS011;5197;48.152;8.590;2024-03-02T10:54:27;2.47;;;2.27;;
10303;SDS011;5197;48.152;8.590;2024-03-02T10:57:03;4.03;;;2.80;;
10303;SDS011;5197;48.152;8.590;2024-03-02T11:02:03;2.10;;;2.00;;
10303;SDS011;5197;48.152;8.590;2024-03-02T11:04:32;2.10;;;1.93;;
10303;SDS011;5197;48.152;8.590;2024-03-02T11:07:00;2.30;;;2.20;;
10303;SDS011;5197;48.152;8.590;2024-03-02T11:09:32;2.37;;;1.60;;
10303;SDS011;5197;48.152;8.590;2024-03-02T11:12:06;1.80;;;1.53;;
10303;SDS011;5197;48.152;8.590;2024-03-02T11:14:40;1.50;;;1.50;;
10303;SDS011;5197;48.152;8.590;2024-03-02T11:17:11;2.93;;;1.23;;
10303;SDS011;5197;48.152;8.590;2024-03-02T11:19:42;2.20;;;1.57;;
10303;SDS011;5197;48.152;8.590;2024-03-02T11:22:10;2.30;;;1.47;;
10303;SDS011;5197;48.152;8.590;2024-03-02T11:24:37;1.37;;;1.37;;
10303;SDS011;5197;48.152;8.590;2024-03-02T11:27:05;1.60;;;1.50;;
10303;SDS011;5197;48.152;8.590;2024-03-02T11:29:42;1.60;;;1.50;;
10303;SDS011;5197;48.152;8.590;2024-03-02T11:32:13;2.77;;;1.57;;
10303;SDS011;5197;48.152;8.590;2024-03-02T11:34:48;1.33;;;1.33;;
10303;SDS011;5197;48.152;8.590;2024-03-02T11:37:16;0.80;;;0.80;;
10303;SDS011;5197;48.152;8.590;2024-03-02T11:39:44;1.43;;;1.33;;
10303;SDS011;5197;48.152;8.590;2024-03-02T11:42:12;1.60;;;1.50;;
10303;SDS011;5197;48.152;8.590;2024-03-02T11:44:41;1.20;;;1.20;;
10303;SDS011;5197;48.152;8.590;2024-03-02T11:47:10;1.40;;;1.40;;
10303;SDS011;5197;48.152;8.590;2024-03-02T11:49:42;1.17;;;1.07;;
10303;SDS011;5197;48.152;8.590;2024-03-02T11:52:12;1.43;;;1.10;;
10303;SDS011;5197;48.152;8.590;2024-03-02T11:54:41;1.00;;;1.00;;
10303;SDS011;5197;48.152;8.590;2024-03-02T11:57:18;1.43;;;1.33;;
10303;SDS011;5197;48.152;8.590;2024-03-02T11:59:47;1.10;;;1.10;;
10303;SDS011;5197;48.152;8.590;2024-03-02T12:02:16;1.13;;;1.13;;
10303;SDS011;5197;48.152;8.590;2024-03-02T12:04:47;1.40;;;1.30;;
10303;SDS011;5197;48.152;8.590;2024-03-02T12:07:19;1.30;;;1.20;;
10303;SDS011;5197;48.152;8.590;2024-03-02T12:10:01;1.80;;;1.00;;
10303;SDS011;5197;48.152;8.590;2024-03-02T12:12:29;2.67;;;1.40;;
10303;SDS011;5197;48.152;8.590;2024-03-02T12:14:56;1.50;;;1.40;;
10303;SDS011;5197;48.152;8.590;2024-03-02T12:17:23;1.07;;;1.07;;
10303;SDS011;5197;48.152;8.590;2024-03-02T12:19:50;1.20;;;1.13;;
10303;SDS011;5197;48.152;8.590;2024-03-02T12:22:17;1.13;;;1.13;;
10303;SDS011;5197;48.152;8.590;2024-03-02T12:24:44;1.20;;;1.20;;
10303;SDS011;5197;48.152;8.590;2024-03-02T12:27:13;1.10;;;1.10;;
10303;SDS011;5197;48.152;8.590;2024-03-02T12:29:42;0.90;;;0.90;;
10303;SDS011;5197;48.152;8.590;2024-03-02T12:32:09;2.10;;;1.20;;
10303;SDS011;5197;48.152;8.590;2024-03-02T12:34:36;1.30;;;1.20;;
10303;SDS011;5197;48.152;8.590;2024-03-02T12:37:05;0.80;;;0.80;;
10303;SDS011;5197;48.152;8.590;2024-03-02T12:39:32;2.37;;;1.07;;
10303;SDS011;5197;48.152;8.590;2024-03-02T12:41:59;1.10;;;0.97;;
10303;SDS011;5197;48.152;8.590;2024-03-02T12:44:29;1.00;;;1.00;;
10303;SDS011;5197;48.152;8.590;2024-03-02T12:46:56;0.90;;;0.90;;
10303;SDS011;5197;48.152;8.590;2024-03-02T12:49:26;1.57;;;1.10;;
10303;SDS011;5197;48.152;8.590;2024-03-02T12:51:55;0.90;;;0.90;;
10303;SDS011;5197;48.152;8.590;2024-03-02T12:54:24;1.23;;;1.17;;
10303;SDS011;5197;48.152;8.590;2024-03-02T12:56:51;1.00;;;1.00;;
10303;SDS011;5197;48.152;8.590;2024-03-02T12:59:21;0.83;;;0.83;;
10303;SDS011;5197;48.152;8.590;2024-03-02T13:01:51;0.97;;;0.80;;
10303;SDS011;5197;48.152;8.590;2024-03-02T13:04:27;2.40;;;1.10;;
10303;SDS011;5197;48.152;8.590;2024-03-02T13:06:56;1.47;;;1.40;;
10303;SDS011;5197;48.152;8.590;2024-03-02T13:09:24;2.17;;;1.10;;
10303;SDS011;5197;48.152;8.590;2024-03-02T13:11:51;1.10;;;1.00;;
10303;SDS011;5197;48.152;8.590;2024-03-02T13:14:18;0.70;;;0.70;;
10303;SDS011;5197;48.152;8.590;2024-03-02T13:16:47;0.93;;;0.93;;
10303;SDS011;5197;48.152;8.590;2024-03-02T13:19:16;1.23;;;1.20;;
10303;SDS011;5197;48.152;8.590;2024-03-02T13:21:45;1.40;;;1.40;;
10303;SDS011;5197;48.152;8.590;2024-03-02T13:24:13;1.20;;;1.20;;
10303;SDS011;5197;48.152;8.590;2024-03-02T13:26:39;1.20;;;1.20;;
10303;SDS011;5197;48.152;8.590;2024-03-02T13:29:06;1.30;;;1.20;;
10303;SDS011;5197;48.152;8.590;2024-03-02T13:31:34;1.30;;;1.20;;
10303;SDS011;5197;48.152;8.590;2024-03-02T13:34:01;1.23;;;1.17;;
10303;SDS011;5197;48.152;8.590;2024-03-02T13:36:28;1.43;;;1.30;;
10303;SDS011;5197;48.152;8.590;2024-03-02T13:38:54;1.30;;;1.30;;
10303;SDS011;5197;48.152;8.590;2024-03-02T13:41:21;2.57;;;1.50;;
10303;SDS011;5197;48.152;8.590;2024-03-02T13:43:48;1.27;;;1.27;;
10303;SDS011;5197;48.152;8.590;2024-03-02T13:46:17;1.57;;;1.47;;
10303;SDS011;5197;48.152;8.590;2024-03-02T13:48:44;1.53;;;1.43;;
10303;SDS011;5197;48.152;8.590;2024-03-02T13:51:11;3.53;;;1.80;;
10303;SDS011;5197;48.152;8.590;2024-03-02T13:53:38;1.47;;;1.00;;
10303;SDS011;5197;48.152;8.590;2024-03-02T13:56:06;1.70;;;1.60;;
10303;SDS011;5197;48.152;8.590;2024-03-02T13:58:33;1.43;;;1.33;;
10303;SDS011;5197;48.152;8.590;2024-03-02T14:01:00;2.43;;;2.10;;
10303;SDS011;5197;48.152;8.590;2024-03-02T14:03:28;2.13;;;1.90;;
10303;SDS011;5197;48.152;8.590;2024-03-02T14:05:57;1.53;;;1.43;;
10303;SDS011;5197;48.152;8.590;2024-03-02T14:08:24;1.20;;;1.10;;
10303;SDS011;5197;48.152;8.590;2024-03-02T14:10:51;2.13;;;1.60;;
10303;SDS011;5197;48.152;8.590;2024-03-02T14:13:18;2.07;;;1.90;;
10303;SDS011;5197;48.152;8.590;2024-03-02T14:15:45;1.33;;;1.33;;
10303;SDS011;5197;48.152;8.590;2024-03-02T14:18:12;3.43;;;1.50;;
10303;SDS011;5197;48.152;8.590;2024-03-02T14:20:39;1.60;;;1.50;;
10303;SDS011;5197;48.152;8.590;2024-03-02T14:23:08;1.30;;;1.20;;
10303;SDS011;5197;48.152;8.590;2024-03-02T14:25:36;2.20;;;1.33;;
10303;SDS011;5197;48.152;8.590;2024-03-02T14:31:14;2.93;;;1.70;;
10303;SDS011;5197;48.152;8.590;2024-03-02T14:33:44;1.33;;;1.30;;
10303;SDS011;5197;48.152;8.590;2024-03-02T14:36:11;1.17;;;1.13;;
10303;SDS011;5197;48.152;8.590;2024-03-02T14:38:38;1.30;;;1.20;;
10303;SDS011;5197;48.152;8.590;2024-03-02T14:41:05;1.10;;;1.10;;
10303;SDS011;5197;48.152;8.590;2024-03-02T14:43:32;1.00;;;1.00;;
10303;SDS011;5197;48.152;8.590;2024-03-02T14:45:59;1.97;;;1.10;;
10303;SDS011;5197;48.152;8.590;2024-03-02T14:48:26;1.10;;;1.10;;
10303;SDS011;5197;48.152;8.590;2024-03-02T14:50:53;1.20;;;1.20;;
10303;SDS011;5197;48.152;8.590;2024-03-02T14:53:20;0.93;;;0.93;;
10303;SDS011;5197;48.152;8.590;2024-03-02T14:55:47;1.10;;;1.03;;
10303;SDS011;5197;48.152;8.590;2024-03-02T14:58:14;1.30;;;1.20;;
10303;SDS011;5197;48.152;8.590;2024-03-02T15:00:42;0.80;;;0.80;;
10303;SDS011;5197;48.152;8.590;2024-03-02T15:03:32;1.27;;;1.20;;
10303;SDS011;5197;48.152;8.590;2024-03-02T15:05:59;1.27;;;1.00;;
10303;SDS011;5197;48.152;8.590;2024-03-02T15:08:26;1.90;;;0.80;;
10303;SDS011;5197;48.152;8.590;2024-03-02T15:10:53;1.33;;;0.77;;